sensor_id;sensor_type;location;lat;lon;timestamp;P1;durP1;ratioP1;P2;durP2;ratioP2
16137;SDS011;8174;43.550;5.206;2022-11-23T00:01:16;12.50;;;6.00;;
16137;SDS011;8174;43.550;5.206;2022-11-23T00:03:44;11.80;;;5.93;;
16137;SDS011;8174;43.550;5.206;2022-11-23T00:06:12;12.23;;;5.70;;
16137;SDS011;8174;43.550;5.206;2022-11-23T00:08:40;12.43;;;5.63;;
16137;SDS011;8174;43.550;5.206;2022-11-23T00:11:08;13.83;;;5.37;;
16137;SDS011;8174;43.550;5.206;2022-11-23T00:13:37;12.17;;;6.20;;
16137;SDS011;8174;43.550;5.206;2022-11-23T00:16:05;12.93;;;6.13;;
16137;SDS011;8174;43.550;5.206;2022-11-23T00:18:32;14.20;;;5.70;;
16137;SDS011;8174;43.550;5.206;2022-11-23T00:21:04;11.20;;;5.67;;
16137;SDS011;8174;43.550;5.206;2022-11-23T00:23:31;11.80;;;5.93;;
16137;SDS011;8174;43.550;5.206;2022-11-23T00:25:59;11.07;;;5.47;;
16137;SDS011;8174;43.550;5.206;2022-11-23T00:28:26;10.07;;;5.43;;
16137;SDS011;8174;43.550;5.206;2022-11-23T00:30:55;9.63;;;5.00;;
16137;SDS011;8174;43.550;5.206;2022-11-23T00:33:23;13.67;;;5.50;;
16137;SDS011;8174;43.550;5.206;2022-11-23T00:35:57;17.70;;;5.40;;
16137;SDS011;8174;43.550;5.206;2022-11-23T00:38:24;14.23;;;5.90;;
16137;SDS011;8174;43.550;5.206;2022-11-23T00:40:56;12.83;;;5.63;;
16137;SDS011;8174;43.550;5.206;2022-11-23T00:43:24;10.30;;;5.43;;
16137;SDS011;8174;43.550;5.206;2022-11-23T00:46:01;12.00;;;4.90;;
16137;SDS011;8174;43.550;5.206;2022-11-23T00:48:29;12.60;;;5.77;;
16137;SDS011;8174;43.550;5.206;2022-11-23T00:50:57;14.10;;;5.90;;
16137;SDS011;8174;43.550;5.206;2022-11-23T00:53:25;12.10;;;6.30;;
16137;SDS011;8174;43.550;5.206;2022-11-23T00:55:53;9.50;;;5.60;;
16137;SDS011;8174;43.550;5.206;2022-11-23T00:58:21;9.10;;;5.37;;
16137;SDS011;8174;43.550;5.206;2022-11-23T01:00:48;9.83;;;4.63;;
16137;SDS011;8174;43.550;5.206;2022-11-23T01:03:18;9.20;;;4.90;;
16137;SDS011;8174;43.550;5.206;2022-11-23T01:05:45;9.67;;;4.97;;
16137;SDS011;8174;43.550;5.206;2022-11-23T01:08:12;9.60;;;4.83;;
16137;SDS011;8174;43.550;5.206;2022-11-23T01:10:40;12.77;;;5.10;;
16137;SDS011;8174;43.550;5.206;2022-11-23T01:13:08;11.33;;;5.10;;
16137;SDS011;8174;43.550;5.206;2022-11-23T01:15:35;13.87;;;5.27;;
16137;SDS011;8174;43.550;5.206;2022-11-23T01:18:03;12.80;;;5.10;;
16137;SDS011;8174;43.550;5.206;2022-11-23T01:20:33;8.97;;;4.87;;
16137;SDS011;8174;43.550;5.206;2022-11-23T01:23:00;12.07;;;4.70;;
16137;SDS011;8174;43.550;5.206;2022-11-23T01:25:28;10.53;;;5.10;;
16137;SDS011;8174;43.550;5.206;2022-11-23T01:27:55;10.10;;;4.30;;
16137;SDS011;8174;43.550;5.206;2022-11-23T01:30:23;10.77;;;4.57;;
16137;SDS011;8174;43.550;5.206;2022-11-23T01:32:51;8.50;;;4.23;;
16137;SDS011;8174;43.550;5.206;2022-11-23T01:35:18;11.47;;;4.77;;
16137;SDS011;8174;43.550;5.206;2022-11-23T01:37:47;13.90;;;5.47;;
16137;SDS011;8174;43.550;5.206;2022-11-23T01:40:15;8.67;;;5.07;;
16137;SDS011;8174;43.550;5.206;2022-11-23T01:42:46;12.43;;;6.17;;
16137;SDS011;8174;43.550;5.206;2022-11-23T01:48:07;13.47;;;5.80;;
16137;SDS011;8174;43.550;5.206;2022-11-23T01:50:37;10.90;;;5.50;;
16137;SDS011;8174;43.550;5.206;2022-11-23T01:53:06;13.20;;;5.80;;
16137;SDS011;8174;43.550;5.206;2022-11-23T01:55:33;10.33;;;5.17;;
16137;SDS011;8174;43.550;5.206;2022-11-23T01:58:02;8.53;;;5.73;;
16137;SDS011;8174;43.550;5.206;2022-11-23T02:00:30;12.23;;;5.37;;
16137;SDS011;8174;43.550;5.206;2022-11-23T02:02:58;12.53;;;5.40;;
16137;SDS011;8174;43.550;5.206;2022-11-23T02:05:28;9.50;;;5.50;;
16137;SDS011;8174;43.550;5.206;2022-11-23T02:07:57;13.13;;;5.57;;
16137;SDS011;8174;43.550;5.206;2022-11-23T02:10:27;9.80;;;5.50;;
16137;SDS011;8174;43.550;5.206;2022-11-23T02:12:55;12.50;;;5.67;;
16137;SDS011;8174;43.550;5.206;2022-11-23T02:15:22;10.73;;;5.97;;
16137;SDS011;8174;43.550;5.206;2022-11-23T02:17:50;10.40;;;5.50;;
16137;SDS011;8174;43.550;5.206;2022-11-23T02:20:17;14.63;;;5.33;;
16137;SDS011;8174;43.550;5.206;2022-11-23T02:22:48;13.80;;;6.10;;
16137;SDS011;8174;43.550;5.206;2022-11-23T02:25:18;14.80;;;5.87;;
16137;SDS011;8174;43.550;5.206;2022-11-23T02:27:50;10.57;;;5.97;;
16137;SDS011;8174;43.550;5.206;2022-11-23T02:30:18;11.23;;;5.77;;
16137;SDS011;8174;43.550;5.206;2022-11-23T02:32:45;13.57;;;5.63;;
16137;SDS011;8174;43.550;5.206;2022-11-23T02:35:13;10.93;;;5.20;;
16137;SDS011;8174;43.550;5.206;2022-11-23T02:37:40;10.30;;;5.50;;
16137;SDS011;8174;43.550;5.206;2022-11-23T02:40:13;13.47;;;5.50;;
16137;SDS011;8174;43.550;5.206;2022-11-23T02:42:43;12.20;;;5.63;;
16137;SDS011;8174;43.550;5.206;2022-11-23T02:45:14;11.17;;;5.77;;
16137;SDS011;8174;43.550;5.206;2022-11-23T02:47:45;10.50;;;5.10;;
16137;SDS011;8174;43.550;5.206;2022-11-23T02:50:13;10.70;;;5.43;;
16137;SDS011;8174;43.550;5.206;2022-11-23T02:52:41;10.13;;;4.60;;
16137;SDS011;8174;43.550;5.206;2022-11-23T02:55:09;11.53;;;5.07;;
16137;SDS011;8174;43.550;5.206;2022-11-23T02:57:36;10.83;;;4.23;;
16137;SDS011;8174;43.550;5.206;2022-11-23T03:00:04;11.77;;;4.80;;
16137;SDS011;8174;43.550;5.206;2022-11-23T03:02:33;9.47;;;4.37;;
16137;SDS011;8174;43.550;5.206;2022-11-23T03:05:01;9.57;;;5.30;;
16137;SDS011;8174;43.550;5.206;2022-11-23T03:07:28;15.50;;;7.07;;
16137;SDS011;8174;43.550;5.206;2022-11-23T03:09:56;13.07;;;5.63;;
16137;SDS011;8174;43.550;5.206;2022-11-23T03:12:23;13.60;;;5.90;;
16137;SDS011;8174;43.550;5.206;2022-11-23T03:14:51;20.13;;;7.50;;
16137;SDS011;8174;43.550;5.206;2022-11-23T03:17:19;19.17;;;8.93;;
16137;SDS011;8174;43.550;5.206;2022-11-23T03:19:48;16.47;;;8.40;;
16137;SDS011;8174;43.550;5.206;2022-11-23T03:22:15;12.47;;;6.07;;
16137;SDS011;8174;43.550;5.206;2022-11-23T03:24:43;12.23;;;6.20;;
16137;SDS011;8174;43.550;5.206;2022-11-23T03:27:10;13.83;;;5.90;;
16137;SDS011;8174;43.550;5.206;2022-11-23T03:29:38;11.87;;;5.40;;
16137;SDS011;8174;43.550;5.206;2022-11-23T03:32:05;10.27;;;5.00;;
16137;SDS011;8174;43.550;5.206;2022-11-23T03:34:33;16.70;;;10.20;;
16137;SDS011;8174;43.550;5.206;2022-11-23T03:37:02;10.77;;;5.40;;
16137;SDS011;8174;43.550;5.206;2022-11-23T03:39:29;11.93;;;5.10;;
16137;SDS011;8174;43.550;5.206;2022-11-23T03:41:57;10.23;;;5.27;;
16137;SDS011;8174;43.550;5.206;2022-11-23T03:44:24;13.57;;;4.80;;
16137;SDS011;8174;43.550;5.206;2022-11-23T03:46:52;9.07;;;4.67;;
16137;SDS011;8174;43.550;5.206;2022-11-23T03:49:19;10.70;;;4.33;;
16137;SDS011;8174;43.550;5.206;2022-11-23T03:51:47;7.47;;;4.50;;
16137;SDS011;8174;43.550;5.206;2022-11-23T03:54:16;11.17;;;4.90;;
16137;SDS011;8174;43.550;5.206;2022-11-23T03:56:43;8.47;;;4.80;;
16137;SDS011;8174;43.550;5.206;2022-11-23T03:59:11;13.20;;;4.80;;
16137;SDS011;8174;43.550;5.206;2022-11-23T04:01:38;9.50;;;4.37;;
16137;SDS011;8174;43.550;5.206;2022-11-23T04:04:06;8.33;;;4.50;;
16137;SDS011;8174;43.550;5.206;2022-11-23T04:06:33;12.37;;;4.80;;
16137;SDS011;8174;43.550;5.206;2022-11-23T04:09:01;10.73;;;5.07;;
16137;SDS011;8174;43.550;5.206;2022-11-23T04:11:30;9.63;;;4.67;;
16137;SDS011;8174;43.550;5.206;2022-11-23T04:13:57;10.13;;;4.40;;
16137;SDS011;8174;43.550;5.206;2022-11-23T04:16:25;11.23;;;4.23;;
16137;SDS011;8174;43.550;5.206;2022-11-23T04:18:53;7.60;;;3.80;;
16137;SDS011;8174;43.550;5.206;2022-11-23T04:21:20;11.47;;;4.80;;
16137;SDS011;8174;43.550;5.206;2022-11-23T04:23:48;12.00;;;6.03;;
16137;SDS011;8174;43.550;5.206;2022-11-23T04:26:15;13.67;;;5.87;;
16137;SDS011;8174;43.550;5.206;2022-11-23T04:28:44;12.10;;;5.80;;
16137;SDS011;8174;43.550;5.206;2022-11-23T04:31:12;9.70;;;4.87;;
16137;SDS011;8174;43.550;5.206;2022-11-23T04:33:39;11.83;;;4.83;;
16137;SDS011;8174;43.550;5.206;2022-11-23T04:36:07;8.07;;;4.70;;
16137;SDS011;8174;43.550;5.206;2022-11-23T04:38:34;11.20;;;5.40;;
16137;SDS011;8174;43.550;5.206;2022-11-23T04:41:02;11.93;;;5.70;;
16137;SDS011;8174;43.550;5.206;2022-11-23T04:43:29;13.70;;;6.10;;
16137;SDS011;8174;43.550;5.206;2022-11-23T04:45:59;16.70;;;6.10;;
16137;SDS011;8174;43.550;5.206;2022-11-23T04:48:26;13.47;;;5.90;;
16137;SDS011;8174;43.550;5.206;2022-11-23T04:50:54;12.03;;;5.87;;
16137;SDS011;8174;43.550;5.206;2022-11-23T04:53:21;10.43;;;5.53;;
16137;SDS011;8174;43.550;5.206;2022-11-23T04:55:49;15.83;;;6.57;;
16137;SDS011;8174;43.550;5.206;2022-11-23T04:58:17;11.33;;;6.10;;
16137;SDS011;8174;43.550;5.206;2022-11-23T05:00:44;9.33;;;5.37;;
16137;SDS011;8174;43.550;5.206;2022-11-23T05:03:13;13.13;;;6.40;;
16137;SDS011;8174;43.550;5.206;2022-11-23T05:05:41;12.27;;;6.37;;
16137;SDS011;8174;43.550;5.206;2022-11-23T05:08:09;10.13;;;5.90;;
16137;SDS011;8174;43.550;5.206;2022-11-23T05:10:36;8.60;;;5.23;;
16137;SDS011;8174;43.550;5.206;2022-11-23T05:13:04;9.87;;;5.70;;
16137;SDS011;8174;43.550;5.206;2022-11-23T05:15:31;10.30;;;6.57;;
16137;SDS011;8174;43.550;5.206;2022-11-23T05:17:59;12.87;;;6.77;;
16137;SDS011;8174;43.550;5.206;2022-11-23T05:20:28;15.50;;;6.97;;
16137;SDS011;8174;43.550;5.206;2022-11-23T05:22:56;23.17;;;10.23;;
16137;SDS011;8174;43.550;5.206;2022-11-23T05:25:24;19.40;;;9.80;;
16137;SDS011;8174;43.550;5.206;2022-11-23T05:27:51;16.10;;;8.13;;
16137;SDS011;8174;43.550;5.206;2022-11-23T05:30:19;17.10;;;7.10;;
16137;SDS011;8174;43.550;5.206;2022-11-23T05:32:46;11.30;;;6.37;;
16137;SDS011;8174;43.550;5.206;2022-11-23T05:35:14;10.00;;;5.30;;
16137;SDS011;8174;43.550;5.206;2022-11-23T05:37:43;12.27;;;6.83;;
16137;SDS011;8174;43.550;5.206;2022-11-23T05:40:11;13.90;;;5.80;;
16137;SDS011;8174;43.550;5.206;2022-11-23T05:42:39;9.37;;;5.43;;
16137;SDS011;8174;43.550;5.206;2022-11-23T05:45:07;12.63;;;6.00;;
16137;SDS011;8174;43.550;5.206;2022-11-23T05:47:34;13.47;;;5.63;;
16137;SDS011;8174;43.550;5.206;2022-11-23T05:50:02;13.00;;;5.73;;
16137;SDS011;8174;43.550;5.206;2022-11-23T05:52:30;25.60;;;11.53;;
16137;SDS011;8174;43.550;5.206;2022-11-23T05:54:58;14.00;;;7.40;;
16137;SDS011;8174;43.550;5.206;2022-11-23T05:57:26;14.13;;;7.00;;
16137;SDS011;8174;43.550;5.206;2022-11-23T05:59:54;28.90;;;11.73;;
16137;SDS011;8174;43.550;5.206;2022-11-23T06:02:21;20.00;;;9.90;;
16137;SDS011;8174;43.550;5.206;2022-11-23T06:04:49;16.77;;;6.77;;
16137;SDS011;8174;43.550;5.206;2022-11-23T06:07:16;12.87;;;6.23;;
16137;SDS011;8174;43.550;5.206;2022-11-23T06:09:44;13.47;;;5.73;;
16137;SDS011;8174;43.550;5.206;2022-11-23T06:12:13;14.10;;;6.73;;
16137;SDS011;8174;43.550;5.206;2022-11-23T06:14:40;18.90;;;7.20;;
16137;SDS011;8174;43.550;5.206;2022-11-23T06:17:08;17.67;;;8.53;;
16137;SDS011;8174;43.550;5.206;2022-11-23T06:19:35;18.80;;;7.50;;
16137;SDS011;8174;43.550;5.206;2022-11-23T06:22:03;12.50;;;6.53;;
16137;SDS011;8174;43.550;5.206;2022-11-23T06:24:31;17.17;;;6.53;;
16137;SDS011;8174;43.550;5.206;2022-11-23T06:26:58;12.70;;;5.50;;
16137;SDS011;8174;43.550;5.206;2022-11-23T06:29:27;14.50;;;5.67;;
16137;SDS011;8174;43.550;5.206;2022-11-23T06:31:55;13.53;;;7.27;;
16137;SDS011;8174;43.550;5.206;2022-11-23T06:34:22;11.60;;;6.03;;
16137;SDS011;8174;43.550;5.206;2022-11-23T06:36:50;11.10;;;6.07;;
16137;SDS011;8174;43.550;5.206;2022-11-23T06:39:17;13.83;;;6.27;;
16137;SDS011;8174;43.550;5.206;2022-11-23T06:41:45;17.40;;;6.40;;
16137;SDS011;8174;43.550;5.206;2022-11-23T06:44:12;16.60;;;6.90;;
16137;SDS011;8174;43.550;5.206;2022-11-23T06:46:41;16.30;;;8.47;;
16137;SDS011;8174;43.550;5.206;2022-11-23T06:49:08;17.43;;;8.30;;
16137;SDS011;8174;43.550;5.206;2022-11-23T06:51:36;17.40;;;8.43;;
16137;SDS011;8174;43.550;5.206;2022-11-23T06:54:04;11.53;;;7.47;;
16137;SDS011;8174;43.550;5.206;2022-11-23T06:56:31;20.67;;;8.80;;
16137;SDS011;8174;43.550;5.206;2022-11-23T06:58:59;22.47;;;7.43;;
16137;SDS011;8174;43.550;5.206;2022-11-23T07:01:26;17.17;;;7.80;;
16137;SDS011;8174;43.550;5.206;2022-11-23T07:03:55;13.70;;;6.83;;
16137;SDS011;8174;43.550;5.206;2022-11-23T07:06:23;17.60;;;7.07;;
16137;SDS011;8174;43.550;5.206;2022-11-23T07:08:52;21.47;;;8.77;;
16137;SDS011;8174;43.550;5.206;2022-11-23T07:11:20;25.17;;;8.20;;
16137;SDS011;8174;43.550;5.206;2022-11-23T07:13:47;19.87;;;7.70;;
16137;SDS011;8174;43.550;5.206;2022-11-23T07:16:15;21.20;;;7.63;;
16137;SDS011;8174;43.550;5.206;2022-11-23T07:18:42;15.10;;;6.87;;
16137;SDS011;8174;43.550;5.206;2022-11-23T07:21:11;18.80;;;7.23;;
16137;SDS011;8174;43.550;5.206;2022-11-23T07:23:39;19.83;;;7.43;;
16137;SDS011;8174;43.550;5.206;2022-11-23T07:26:06;27.47;;;7.67;;
16137;SDS011;8174;43.550;5.206;2022-11-23T07:28:34;18.93;;;7.13;;
16137;SDS011;8174;43.550;5.206;2022-11-23T07:31:02;20.40;;;9.17;;
16137;SDS011;8174;43.550;5.206;2022-11-23T07:33:29;23.10;;;9.27;;
16137;SDS011;8174;43.550;5.206;2022-11-23T07:35:59;22.53;;;8.47;;
16137;SDS011;8174;43.550;5.206;2022-11-23T07:38:28;16.83;;;7.90;;
16137;SDS011;8174;43.550;5.206;2022-11-23T07:40:56;17.73;;;7.90;;
16137;SDS011;8174;43.550;5.206;2022-11-23T07:43:25;18.67;;;7.67;;
16137;SDS011;8174;43.550;5.206;2022-11-23T07:45:53;18.33;;;7.67;;
16137;SDS011;8174;43.550;5.206;2022-11-23T07:48:21;21.43;;;7.63;;
16137;SDS011;8174;43.550;5.206;2022-11-23T07:50:50;22.80;;;7.47;;
16137;SDS011;8174;43.550;5.206;2022-11-23T07:53:18;21.50;;;7.40;;
16137;SDS011;8174;43.550;5.206;2022-11-23T07:55:47;19.63;;;8.03;;
16137;SDS011;8174;43.550;5.206;2022-11-23T07:58:14;14.67;;;6.97;;
16137;SDS011;8174;43.550;5.206;2022-11-23T08:00:43;19.87;;;7.43;;
16137;SDS011;8174;43.550;5.206;2022-11-23T08:03:10;19.97;;;7.37;;
16137;SDS011;8174;43.550;5.206;2022-11-23T08:05:40;14.70;;;7.73;;
16137;SDS011;8174;43.550;5.206;2022-11-23T08:08:07;17.60;;;8.27;;
16137;SDS011;8174;43.550;5.206;2022-11-23T08:10:36;17.77;;;8.70;;
16137;SDS011;8174;43.550;5.206;2022-11-23T08:13:05;15.70;;;7.77;;
16137;SDS011;8174;43.550;5.206;2022-11-23T08:15:32;16.30;;;8.00;;
16137;SDS011;8174;43.550;5.206;2022-11-23T08:18:00;14.10;;;7.00;;
16137;SDS011;8174;43.550;5.206;2022-11-23T08:20:28;15.40;;;7.30;;
16137;SDS011;8174;43.550;5.206;2022-11-23T08:22:57;13.37;;;6.23;;
16137;SDS011;8174;43.550;5.206;2022-11-23T08:25:25;13.27;;;6.93;;
16137;SDS011;8174;43.550;5.206;2022-11-23T08:27:54;21.03;;;8.80;;
16137;SDS011;8174;43.550;5.206;2022-11-23T08:30:23;19.20;;;9.53;;
16137;SDS011;8174;43.550;5.206;2022-11-23T08:32:50;16.50;;;7.83;;
16137;SDS011;8174;43.550;5.206;2022-11-23T08:35:18;17.43;;;6.70;;
16137;SDS011;8174;43.550;5.206;2022-11-23T08:37:46;15.07;;;6.53;;
16137;SDS011;8174;43.550;5.206;2022-11-23T08:40:13;16.60;;;7.10;;
16137;SDS011;8174;43.550;5.206;2022-11-23T08:42:41;10.07;;;6.73;;
16137;SDS011;8174;43.550;5.206;2022-11-23T08:45:09;18.17;;;7.40;;
16137;SDS011;8174;43.550;5.206;2022-11-23T08:47:38;13.07;;;6.87;;
16137;SDS011;8174;43.550;5.206;2022-11-23T08:50:06;18.87;;;6.50;;
16137;SDS011;8174;43.550;5.206;2022-11-23T08:52:34;13.60;;;6.57;;
16137;SDS011;8174;43.550;5.206;2022-11-23T08:55:01;13.70;;;5.33;;
16137;SDS011;8174;43.550;5.206;2022-11-23T08:57:29;11.73;;;5.23;;
16137;SDS011;8174;43.550;5.206;2022-11-23T08:59:57;15.33;;;5.00;;
16137;SDS011;8174;43.550;5.206;2022-11-23T09:02:24;14.40;;;4.80;;
16137;SDS011;8174;43.550;5.206;2022-11-23T09:04:53;14.13;;;4.63;;
16137;SDS011;8174;43.550;5.206;2022-11-23T09:07:21;13.00;;;5.33;;
16137;SDS011;8174;43.550;5.206;2022-11-23T09:09:48;17.73;;;4.87;;
16137;SDS011;8174;43.550;5.206;2022-11-23T09:12:16;10.53;;;4.30;;
16137;SDS011;8174;43.550;5.206;2022-11-23T09:14:43;12.63;;;4.50;;
16137;SDS011;8174;43.550;5.206;2022-11-23T09:17:11;8.73;;;4.30;;
16137;SDS011;8174;43.550;5.206;2022-11-23T09:19:39;11.13;;;4.23;;
16137;SDS011;8174;43.550;5.206;2022-11-23T09:22:08;11.03;;;4.20;;
16137;SDS011;8174;43.550;5.206;2022-11-23T09:24:36;9.57;;;3.60;;
16137;SDS011;8174;43.550;5.206;2022-11-23T09:27:03;8.03;;;3.40;;
16137;SDS011;8174;43.550;5.206;2022-11-23T09:29:31;9.80;;;3.70;;
16137;SDS011;8174;43.550;5.206;2022-11-23T09:32:00;12.40;;;3.77;;
16137;SDS011;8174;43.550;5.206;2022-11-23T09:34:27;8.87;;;3.30;;
16137;SDS011;8174;43.550;5.206;2022-11-23T09:36:55;6.27;;;2.77;;
16137;SDS011;8174;43.550;5.206;2022-11-23T09:39:24;7.77;;;3.13;;
16137;SDS011;8174;43.550;5.206;2022-11-23T09:44:36;6.67;;;3.00;;
16137;SDS011;8174;43.550;5.206;2022-11-23T09:47:12;6.23;;;3.13;;
16137;SDS011;8174;43.550;5.206;2022-11-23T09:49:43;8.80;;;2.80;;
16137;SDS011;8174;43.550;5.206;2022-11-23T09:52:13;7.40;;;3.23;;
16137;SDS011;8174;43.550;5.206;2022-11-23T09:54:43;9.60;;;3.13;;
16137;SDS011;8174;43.550;5.206;2022-11-23T09:57:11;7.33;;;2.83;;
16137;SDS011;8174;43.550;5.206;2022-11-23T09:59:41;9.90;;;3.30;;
16137;SDS011;8174;43.550;5.206;2022-11-23T10:02:13;11.50;;;3.47;;
16137;SDS011;8174;43.550;5.206;2022-11-23T10:04:43;11.70;;;3.80;;
16137;SDS011;8174;43.550;5.206;2022-11-23T10:07:17;13.87;;;4.27;;
16137;SDS011;8174;43.550;5.206;2022-11-23T10:09:52;8.57;;;3.60;;
16137;SDS011;8174;43.550;5.206;2022-11-23T10:12:30;7.53;;;3.63;;
16137;SDS011;8174;43.550;5.206;2022-11-23T10:15:01;8.50;;;4.20;;
16137;SDS011;8174;43.550;5.206;2022-11-23T10:17:42;11.27;;;5.83;;
16137;SDS011;8174;43.550;5.206;2022-11-23T10:20:27;15.17;;;6.03;;
16137;SDS011;8174;43.550;5.206;2022-11-23T10:22:58;18.43;;;7.43;;
16137;SDS011;8174;43.550;5.206;2022-11-23T10:25:28;16.47;;;7.07;;
16137;SDS011;8174;43.550;5.206;2022-11-23T10:27:59;16.27;;;6.97;;
16137;SDS011;8174;43.550;5.206;2022-11-23T10:30:28;14.77;;;6.80;;
16137;SDS011;8174;43.550;5.206;2022-11-23T10:32:57;14.90;;;7.47;;
16137;SDS011;8174;43.550;5.206;2022-11-23T10:35:27;16.83;;;8.90;;
16137;SDS011;8174;43.550;5.206;2022-11-23T10:38:00;25.43;;;11.00;;
16137;SDS011;8174;43.550;5.206;2022-11-23T10:40:30;25.17;;;11.73;;
16137;SDS011;8174;43.550;5.206;2022-11-23T10:42:58;25.73;;;12.67;;
16137;SDS011;8174;43.550;5.206;2022-11-23T10:45:28;24.70;;;13.23;;
16137;SDS011;8174;43.550;5.206;2022-11-23T10:47:56;24.10;;;13.17;;
16137;SDS011;8174;43.550;5.206;2022-11-23T10:50:25;24.23;;;13.33;;
16137;SDS011;8174;43.550;5.206;2022-11-23T10:52:54;21.17;;;12.00;;
16137;SDS011;8174;43.550;5.206;2022-11-23T10:55:26;20.93;;;12.17;;
16137;SDS011;8174;43.550;5.206;2022-11-23T10:57:56;27.00;;;13.20;;
16137;SDS011;8174;43.550;5.206;2022-11-23T11:00:24;23.70;;;12.83;;
16137;SDS011;8174;43.550;5.206;2022-11-23T11:02:53;21.27;;;13.30;;
16137;SDS011;8174;43.550;5.206;2022-11-23T11:05:25;28.57;;;13.47;;
16137;SDS011;8174;43.550;5.206;2022-11-23T11:07:54;22.80;;;12.40;;
16137;SDS011;8174;43.550;5.206;2022-11-23T11:10:30;29.63;;;20.47;;
16137;SDS011;8174;43.550;5.206;2022-11-23T11:13:00;19.07;;;11.57;;
16137;SDS011;8174;43.550;5.206;2022-11-23T11:15:27;18.13;;;11.33;;
16137;SDS011;8174;43.550;5.206;2022-11-23T11:17:55;21.27;;;12.67;;
16137;SDS011;8174;43.550;5.206;2022-11-23T11:20:27;20.90;;;12.10;;
16137;SDS011;8174;43.550;5.206;2022-11-23T11:22:56;22.43;;;12.50;;
16137;SDS011;8174;43.550;5.206;2022-11-23T11:25:26;20.30;;;11.97;;
16137;SDS011;8174;43.550;5.206;2022-11-23T11:27:54;25.60;;;10.60;;
16137;SDS011;8174;43.550;5.206;2022-11-23T11:30:23;19.47;;;10.03;;
16137;SDS011;8174;43.550;5.206;2022-11-23T11:32:53;18.47;;;9.03;;
16137;SDS011;8174;43.550;5.206;2022-11-23T11:35:24;22.53;;;11.60;;
16137;SDS011;8174;43.550;5.206;2022-11-23T11:37:53;24.17;;;11.30;;
16137;SDS011;8174;43.550;5.206;2022-11-23T11:40:22;15.70;;;9.20;;
16137;SDS011;8174;43.550;5.206;2022-11-23T11:42:53;16.37;;;7.13;;
16137;SDS011;8174;43.550;5.206;2022-11-23T11:45:25;17.80;;;6.60;;
16137;SDS011;8174;43.550;5.206;2022-11-23T11:47:56;14.90;;;6.27;;
16137;SDS011;8174;43.550;5.206;2022-11-23T11:50:27;14.67;;;6.73;;
16137;SDS011;8174;43.550;5.206;2022-11-23T11:52:57;16.70;;;7.60;;
16137;SDS011;8174;43.550;5.206;2022-11-23T11:55:27;22.67;;;10.77;;
16137;SDS011;8174;43.550;5.206;2022-11-23T11:57:59;24.30;;;11.33;;
16137;SDS011;8174;43.550;5.206;2022-11-23T12:00:29;24.47;;;9.93;;
16137;SDS011;8174;43.550;5.206;2022-11-23T12:03:02;20.03;;;9.97;;
16137;SDS011;8174;43.550;5.206;2022-11-23T12:05:34;26.97;;;11.67;;
16137;SDS011;8174;43.550;5.206;2022-11-23T12:08:04;23.10;;;11.63;;
16137;SDS011;8174;43.550;5.206;2022-11-23T12:10:33;24.30;;;11.93;;
16137;SDS011;8174;43.550;5.206;2022-11-23T12:13:03;25.37;;;11.70;;
16137;SDS011;8174;43.550;5.206;2022-11-23T12:15:33;25.33;;;12.10;;
16137;SDS011;8174;43.550;5.206;2022-11-23T12:18:08;25.83;;;11.77;;
16137;SDS011;8174;43.550;5.206;2022-11-23T12:20:41;26.37;;;11.90;;
16137;SDS011;8174;43.550;5.206;2022-11-23T12:23:16;29.43;;;14.53;;
16137;SDS011;8174;43.550;5.206;2022-11-23T12:25:47;25.40;;;11.93;;
16137;SDS011;8174;43.550;5.206;2022-11-23T12:28:28;23.23;;;11.43;;
16137;SDS011;8174;43.550;5.206;2022-11-23T12:31:06;24.67;;;11.77;;
16137;SDS011;8174;43.550;5.206;2022-11-23T12:36:39;23.03;;;11.13;;
16137;SDS011;8174;43.550;5.206;2022-11-23T12:39:12;36.60;;;14.33;;
16137;SDS011;8174;43.550;5.206;2022-11-23T12:41:43;38.67;;;17.27;;
16137;SDS011;8174;43.550;5.206;2022-11-23T12:44:27;32.13;;;17.33;;
16137;SDS011;8174;43.550;5.206;2022-11-23T12:47:05;32.23;;;16.73;;
16137;SDS011;8174;43.550;5.206;2022-11-23T12:49:37;28.33;;;15.23;;
16137;SDS011;8174;43.550;5.206;2022-11-23T12:52:10;26.43;;;13.77;;
16137;SDS011;8174;43.550;5.206;2022-11-23T12:54:46;22.53;;;11.47;;
16137;SDS011;8174;43.550;5.206;2022-11-23T12:57:19;25.93;;;12.43;;
16137;SDS011;8174;43.550;5.206;2022-11-23T12:59:53;24.53;;;11.53;;
16137;SDS011;8174;43.550;5.206;2022-11-23T13:02:34;26.57;;;13.03;;
16137;SDS011;8174;43.550;5.206;2022-11-23T13:07:51;30.37;;;15.30;;
16137;SDS011;8174;43.550;5.206;2022-11-23T13:13:20;26.33;;;13.70;;
16137;SDS011;8174;43.550;5.206;2022-11-23T13:15:54;27.80;;;13.37;;
16137;SDS011;8174;43.550;5.206;2022-11-23T13:18:33;33.63;;;14.80;;
16137;SDS011;8174;43.550;5.206;2022-11-23T13:21:02;31.53;;;16.27;;
16137;SDS011;8174;43.550;5.206;2022-11-23T13:23:33;32.87;;;14.87;;
16137;SDS011;8174;43.550;5.206;2022-11-23T13:26:11;28.60;;;13.23;;
16137;SDS011;8174;43.550;5.206;2022-11-23T13:28:39;23.60;;;12.70;;
16137;SDS011;8174;43.550;5.206;2022-11-23T13:31:22;24.27;;;13.80;;
16137;SDS011;8174;43.550;5.206;2022-11-23T13:33:52;29.23;;;14.33;;
16137;SDS011;8174;43.550;5.206;2022-11-23T13:42:07;29.80;;;13.87;;
16137;SDS011;8174;43.550;5.206;2022-11-23T13:44:35;30.20;;;15.43;;
16137;SDS011;8174;43.550;5.206;2022-11-23T13:47:17;27.50;;;12.70;;
16137;SDS011;8174;43.550;5.206;2022-11-23T13:49:47;31.03;;;14.23;;
16137;SDS011;8174;43.550;5.206;2022-11-23T13:52:21;31.97;;;14.70;;
16137;SDS011;8174;43.550;5.206;2022-11-23T13:54:53;26.83;;;13.77;;
16137;SDS011;8174;43.550;5.206;2022-11-23T13:57:21;27.33;;;12.47;;
16137;SDS011;8174;43.550;5.206;2022-11-23T13:59:49;30.07;;;13.53;;
16137;SDS011;8174;43.550;5.206;2022-11-23T14:07:38;26.80;;;13.00;;
16137;SDS011;8174;43.550;5.206;2022-11-23T14:10:13;23.00;;;12.43;;
16137;SDS011;8174;43.550;5.206;2022-11-23T14:12:43;26.50;;;14.00;;
16137;SDS011;8174;43.550;5.206;2022-11-23T14:15:14;24.23;;;14.07;;
16137;SDS011;8174;43.550;5.206;2022-11-23T14:17:47;26.00;;;13.87;;
16137;SDS011;8174;43.550;5.206;2022-11-23T14:23:34;34.33;;;18.37;;
16137;SDS011;8174;43.550;5.206;2022-11-23T14:26:13;33.03;;;17.67;;
16137;SDS011;8174;43.550;5.206;2022-11-23T14:28:46;35.10;;;17.47;;
16137;SDS011;8174;43.550;5.206;2022-11-23T14:31:20;25.57;;;13.80;;
16137;SDS011;8174;43.550;5.206;2022-11-23T14:33:50;29.50;;;13.53;;
16137;SDS011;8174;43.550;5.206;2022-11-23T14:36:22;30.57;;;13.07;;
16137;SDS011;8174;43.550;5.206;2022-11-23T14:41:40;22.03;;;11.27;;
16137;SDS011;8174;43.550;5.206;2022-11-23T14:44:09;30.20;;;13.27;;
16137;SDS011;8174;43.550;5.206;2022-11-23T14:46:53;38.70;;;14.77;;
16137;SDS011;8174;43.550;5.206;2022-11-23T14:49:25;27.50;;;12.83;;
16137;SDS011;8174;43.550;5.206;2022-11-23T14:51:52;25.63;;;11.80;;
16137;SDS011;8174;43.550;5.206;2022-11-23T14:54:20;23.27;;;12.57;;
16137;SDS011;8174;43.550;5.206;2022-11-23T14:56:49;19.97;;;10.73;;
16137;SDS011;8174;43.550;5.206;2022-11-23T14:59:18;15.27;;;9.23;;
16137;SDS011;8174;43.550;5.206;2022-11-23T15:01:49;13.03;;;7.20;;
16137;SDS011;8174;43.550;5.206;2022-11-23T15:04:20;12.27;;;7.43;;
16137;SDS011;8174;43.550;5.206;2022-11-23T15:06:49;6.93;;;4.10;;
16137;SDS011;8174;43.550;5.206;2022-11-23T15:09:20;7.27;;;4.37;;
16137;SDS011;8174;43.550;5.206;2022-11-23T15:12:05;5.80;;;3.40;;
16137;SDS011;8174;43.550;5.206;2022-11-23T15:14:33;7.80;;;2.77;;
16137;SDS011;8174;43.550;5.206;2022-11-23T15:17:14;11.13;;;5.47;;
16137;SDS011;8174;43.550;5.206;2022-11-23T15:19:42;10.60;;;5.03;;
16137;SDS011;8174;43.550;5.206;2022-11-23T15:22:12;8.97;;;4.23;;
16137;SDS011;8174;43.550;5.206;2022-11-23T15:24:40;8.97;;;4.57;;
16137;SDS011;8174;43.550;5.206;2022-11-23T15:27:11;10.30;;;5.20;;
16137;SDS011;8174;43.550;5.206;2022-11-23T15:29:48;9.67;;;4.73;;